createdAt,value
2023-03-10T00:00:07.478Z,34.10
2023-03-10T00:01:07.477Z,34.60
2023-03-10T00:02:07.467Z,33.70
2023-03-10T00:03:07.455Z,33.50
2023-03-10T00:04:07.513Z,34.80
2023-03-10T00:05:07.426Z,34.30
2023-03-10T00:06:07.583Z,32.90
2023-03-10T00:07:07.402Z,35.90
2023-03-10T00:08:07.400Z,35.90
2023-03-10T00:09:07.371Z,35.10
2023-03-10T00:10:07.357Z,32.30
2023-03-10T00:11:07.344Z,34.50
2023-03-10T00:12:07.347Z,36.10
2023-03-10T00:13:07.329Z,34.00
2023-03-10T00:14:07.315Z,33.90
2023-03-10T00:15:07.308Z,33.80
2023-03-10T00:16:07.357Z,34.20
2023-03-10T00:17:07.308Z,36.00
2023-03-10T00:18:07.279Z,36.50
2023-03-10T00:19:07.258Z,33.30
2023-03-10T00:20:07.258Z,35.80
2023-03-10T00:21:07.239Z,33.20
2023-03-10T00:22:07.211Z,36.60
2023-03-10T00:23:07.207Z,36.60
2023-03-10T00:24:07.197Z,34.20
2023-03-10T00:25:07.190Z,34.60
2023-03-10T00:26:07.188Z,34.20
2023-03-10T00:27:07.144Z,35.10
2023-03-10T00:28:07.134Z,34.50
2023-03-10T00:29:07.145Z,34.20
2023-03-10T00:30:07.142Z,34.00
2023-03-10T00:31:07.127Z,36.90
2023-03-10T00:32:07.096Z,33.70
2023-03-10T00:33:07.076Z,35.30
2023-03-10T00:34:07.059Z,34.50
2023-03-10T00:35:07.048Z,34.50
2023-03-10T00:36:07.081Z,33.70
2023-03-10T00:37:07.052Z,34.20
2023-03-10T00:38:07.037Z,33.80
2023-03-10T00:39:06.997Z,35.30
2023-03-10T00:41:08.495Z,34.00
2023-03-10T00:42:08.468Z,34.10
2023-03-10T00:43:08.465Z,34.40
2023-03-10T00:44:08.431Z,32.00
2023-03-10T00:45:08.441Z,35.60
2023-03-10T00:46:08.458Z,33.30
2023-03-10T00:47:08.390Z,33.70
2023-03-10T00:48:08.401Z,33.40
2023-03-10T00:49:08.383Z,33.80
2023-03-10T00:50:08.523Z,33.40
2023-03-10T00:51:08.378Z,33.50
2023-03-10T00:52:08.367Z,33.50
2023-03-10T00:53:08.340Z,33.70
2023-03-10T00:54:08.336Z,37.60
2023-03-10T00:55:08.298Z,33.90
2023-03-10T00:56:08.287Z,32.80
2023-03-10T00:57:08.270Z,32.60
2023-03-10T00:58:08.260Z,35.50
2023-03-10T00:59:08.278Z,33.40
2023-03-10T01:00:08.255Z,33.00
2023-03-10T01:01:08.328Z,32.90
2023-03-10T01:02:08.252Z,36.20
2023-03-10T01:03:08.221Z,35.20
2023-03-10T01:04:08.201Z,32.50
2023-03-10T01:05:08.194Z,34.10
2023-03-10T01:06:08.186Z,32.80
2023-03-10T01:07:08.150Z,32.10
2023-03-10T01:08:08.154Z,33.90
2023-03-10T01:09:08.149Z,33.40
2023-03-10T01:10:08.133Z,34.60
2023-03-10T01:11:08.097Z,34.50
2023-03-10T01:12:08.088Z,34.40
2023-03-10T01:13:08.083Z,35.10
2023-03-10T01:14:08.084Z,34.90
2023-03-10T01:15:08.076Z,33.70
2023-03-10T01:16:08.121Z,34.20
2023-03-10T01:17:08.039Z,33.30
2023-03-10T01:18:08.017Z,35.20
2023-03-10T01:19:08.045Z,34.70
2023-03-10T01:20:08.004Z,34.80
2023-03-10T01:21:07.968Z,33.40
2023-03-10T01:22:07.969Z,34.70
2023-03-10T01:23:07.969Z,34.90
2023-03-10T01:24:07.950Z,32.80
2023-03-10T01:25:07.948Z,33.20
2023-03-10T01:26:07.940Z,32.80
2023-03-10T01:27:07.920Z,33.00
2023-03-10T01:28:07.940Z,32.10
2023-03-10T01:29:07.902Z,33.50
2023-03-10T01:30:07.901Z,34.10
2023-03-10T01:31:08.032Z,33.50
2023-03-10T01:32:07.854Z,32.40
2023-03-10T01:33:07.852Z,34.90
2023-03-10T01:34:07.826Z,33.20
2023-03-10T01:35:07.821Z,33.50
2023-03-10T01:36:07.906Z,33.10
2023-03-10T01:37:07.781Z,32.70
2023-03-10T01:38:07.779Z,32.70
2023-03-10T01:39:07.748Z,34.20
2023-03-10T01:40:07.760Z,33.20
2023-03-10T01:41:07.764Z,32.30
2023-03-10T01:42:07.747Z,34.10
2023-03-10T01:43:07.710Z,32.20
2023-03-10T01:44:07.687Z,34.60
2023-03-10T01:45:07.685Z,35.50
2023-03-10T01:46:07.746Z,34.30
2023-03-10T01:47:07.667Z,33.40
2023-03-10T01:48:07.654Z,33.80
2023-03-10T01:49:07.632Z,32.50
2023-03-10T01:50:07.633Z,34.20
2023-03-10T01:51:07.607Z,34.00
2023-03-10T01:52:07.613Z,33.60
2023-03-10T01:53:07.600Z,33.30
2023-03-10T01:54:07.586Z,36.80
2023-03-10T01:55:07.547Z,33.70
2023-03-10T01:56:10.203Z,32.80
2023-03-10T01:57:07.574Z,33.30
2023-03-10T01:58:07.547Z,32.80
2023-03-10T01:59:07.492Z,31.30
2023-03-10T02:00:07.523Z,34.60
2023-03-10T02:01:07.519Z,32.80
2023-03-10T02:02:07.523Z,33.90
2023-03-10T02:03:07.485Z,32.50
2023-03-10T02:04:07.472Z,35.00
2023-03-10T02:05:07.436Z,32.70
2023-03-10T02:06:07.423Z,33.00
2023-03-10T02:07:07.431Z,32.80
2023-03-10T02:08:07.406Z,34.80
2023-03-10T02:09:07.395Z,34.20
2023-03-10T02:10:07.382Z,34.80
2023-03-10T02:11:07.355Z,33.70
2023-03-10T02:12:07.356Z,32.50
2023-03-10T02:13:07.346Z,31.80
2023-03-10T02:14:07.350Z,32.30
2023-03-10T02:15:07.324Z,34.70
2023-03-10T02:16:07.351Z,33.50
2023-03-10T02:17:07.289Z,34.30
2023-03-10T02:18:07.302Z,34.80
2023-03-10T02:19:07.285Z,35.70
2023-03-10T02:20:07.268Z,32.10
2023-03-10T02:21:07.234Z,33.30
2023-03-10T02:22:07.336Z,33.80
2023-03-10T02:23:07.228Z,34.30
2023-03-10T02:24:07.202Z,35.50
2023-03-10T02:25:07.202Z,33.90
2023-03-10T02:26:07.174Z,34.50
2023-03-10T02:27:07.174Z,34.90
2023-03-10T02:28:07.171Z,33.50
2023-03-10T02:29:07.152Z,34.20
2023-03-10T02:30:07.157Z,34.60
2023-03-10T02:31:07.181Z,33.80
2023-03-10T02:32:07.102Z,33.60
2023-03-10T02:33:07.110Z,34.60
2023-03-10T02:34:07.079Z,32.90
2023-03-10T02:35:07.078Z,34.70
2023-03-10T02:36:07.087Z,34.40
2023-03-10T02:37:07.040Z,36.10
2023-03-10T02:38:07.026Z,33.70
2023-03-10T02:39:07.024Z,34.70
2023-03-10T02:40:06.999Z,33.80
2023-03-10T02:41:06.977Z,33.00
2023-03-10T02:42:07.006Z,35.30
2023-03-10T02:43:06.970Z,37.20
2023-03-10T02:44:06.959Z,34.30
2023-03-10T02:45:06.953Z,32.80
2023-03-10T02:46:06.991Z,34.70
2023-03-10T02:47:06.917Z,32.50
2023-03-10T02:48:06.899Z,32.10
2023-03-10T02:49:06.937Z,32.10
2023-03-10T02:50:06.880Z,32.70
2023-03-10T02:51:06.894Z,33.70
2023-03-10T02:52:06.844Z,33.40
2023-03-10T02:53:06.863Z,32.90
2023-03-10T02:54:06.825Z,32.80
2023-03-10T02:55:06.803Z,33.40
2023-03-10T02:56:06.836Z,34.10
2023-03-10T02:57:06.794Z,32.10
2023-03-10T02:58:06.799Z,33.70
2023-03-10T02:59:06.772Z,33.70
2023-03-10T03:00:06.743Z,33.30
2023-03-10T03:01:06.772Z,33.60
2023-03-10T03:02:06.726Z,35.10
2023-03-10T03:03:06.730Z,33.00
2023-03-10T03:04:06.770Z,35.60
2023-03-10T03:05:06.686Z,32.80
2023-03-10T03:06:06.673Z,34.50
2023-03-10T03:07:06.652Z,32.70
2023-03-10T03:08:06.661Z,35.60
2023-03-10T03:09:06.680Z,32.70
2023-03-10T03:10:06.630Z,35.00
2023-03-10T03:11:06.627Z,33.80
2023-03-10T03:12:06.640Z,34.00
2023-03-10T03:13:06.592Z,34.70
2023-03-10T03:14:06.572Z,34.10
2023-03-10T03:15:06.568Z,32.00
2023-03-10T03:16:06.549Z,32.40
2023-03-10T03:17:06.586Z,32.30
2023-03-10T03:18:06.537Z,33.70
2023-03-10T03:19:06.508Z,32.90
2023-03-10T03:20:06.504Z,32.30
2023-03-10T03:21:06.484Z,33.70
2023-03-10T03:22:06.482Z,31.40
2023-03-10T03:23:06.465Z,33.40
2023-03-10T03:24:06.464Z,36.80
2023-03-10T03:25:06.455Z,35.40
2023-03-10T03:26:06.433Z,34.70
2023-03-10T03:27:06.402Z,34.40
2023-03-10T03:28:06.407Z,34.20
2023-03-10T03:29:06.392Z,33.80
2023-03-10T03:30:06.406Z,35.60
2023-03-10T03:31:06.362Z,33.90
2023-03-10T03:32:06.467Z,33.80
2023-03-10T03:33:06.328Z,33.90
2023-03-10T03:34:06.319Z,33.00
2023-03-10T03:35:06.309Z,33.40
2023-03-10T03:36:06.337Z,32.10
2023-03-10T03:37:06.278Z,32.60
2023-03-10T03:38:06.269Z,34.40
2023-03-10T03:39:06.267Z,34.40
2023-03-10T03:40:06.258Z,34.30
2023-03-10T03:41:06.230Z,35.50
2023-03-10T03:42:06.218Z,33.00
2023-03-10T03:43:06.217Z,33.00
2023-03-10T03:44:06.211Z,34.60
2023-03-10T03:45:06.191Z,34.70
2023-03-10T03:46:06.296Z,34.80
2023-03-10T03:47:06.173Z,33.40
2023-03-10T03:48:06.158Z,34.20
2023-03-10T03:49:06.127Z,33.70
2023-03-10T03:50:06.118Z,32.90
2023-03-10T03:51:06.109Z,34.50
2023-03-10T03:52:06.097Z,34.00
2023-03-10T03:53:06.077Z,34.40
2023-03-10T03:54:06.068Z,33.50
2023-03-10T03:55:06.064Z,32.40
2023-03-10T03:56:06.042Z,32.90
2023-03-10T03:57:06.064Z,35.10
2023-03-10T03:58:06.018Z,33.60
2023-03-10T03:59:06.026Z,36.20
2023-03-10T04:00:06.206Z,33.40
2023-03-10T04:01:05.987Z,33.90
2023-03-10T04:02:05.997Z,33.50
2023-03-10T04:03:06.018Z,35.80
2023-03-10T04:04:05.988Z,36.00
2023-03-10T04:05:05.925Z,34.50
2023-03-10T04:06:05.933Z,33.30
2023-03-10T04:07:05.937Z,32.40
2023-03-10T04:08:05.901Z,34.90
2023-03-10T04:09:05.881Z,34.90
2023-03-10T04:10:05.858Z,33.30
2023-03-10T04:11:05.854Z,34.50
2023-03-10T04:12:05.859Z,34.90
2023-03-10T04:13:05.923Z,32.70
2023-03-10T04:14:05.830Z,34.40
2023-03-10T04:15:05.807Z,32.50
2023-03-10T04:16:05.840Z,32.70
2023-03-10T04:17:05.813Z,32.20
2023-03-10T04:18:05.802Z,33.30
2023-03-10T04:19:05.781Z,33.10
2023-03-10T04:20:08.101Z,34.20
2023-03-10T04:21:05.772Z,33.50
2023-03-10T04:22:05.736Z,32.90
2023-03-10T04:23:05.729Z,32.90
2023-03-10T04:24:05.785Z,34.50
2023-03-10T04:25:05.737Z,34.50
2023-03-10T04:26:05.679Z,34.50
2023-03-10T04:27:05.664Z,34.10
2023-03-10T04:28:05.653Z,31.70
2023-03-10T04:29:05.674Z,32.30
2023-03-10T04:30:05.626Z,34.10
2023-03-10T04:31:05.651Z,33.40
2023-03-10T04:32:06.101Z,34.00
2023-03-10T04:33:05.583Z,34.40
2023-03-10T04:34:05.569Z,33.70
2023-03-10T04:35:05.587Z,34.10
2023-03-10T04:36:05.602Z,32.30
2023-03-10T04:37:05.530Z,34.90
2023-03-10T04:38:05.518Z,32.00
2023-03-10T04:39:05.525Z,33.70
2023-03-10T04:40:05.520Z,33.60
2023-03-10T04:41:05.480Z,33.40
2023-03-10T04:42:05.471Z,33.20
2023-03-10T04:43:05.474Z,33.70
2023-03-10T04:44:05.450Z,35.30
2023-03-10T04:45:05.432Z,33.60
2023-03-10T04:46:05.512Z,34.20
2023-03-10T04:47:05.419Z,34.40
2023-03-10T04:48:05.391Z,32.50
2023-03-10T04:49:05.381Z,33.10
2023-03-10T04:50:05.399Z,33.50
2023-03-10T04:51:05.384Z,34.40
2023-03-10T04:52:05.368Z,32.40
2023-03-10T04:53:05.364Z,33.80
2023-03-10T04:54:05.334Z,32.20
2023-03-10T04:55:05.325Z,32.80
2023-03-10T04:56:05.304Z,34.30
2023-03-10T04:57:05.312Z,32.80
2023-03-10T04:58:05.283Z,34.70
2023-03-10T04:59:05.297Z,33.30
2023-03-10T05:00:05.292Z,34.40
2023-03-10T05:01:05.310Z,35.40
2023-03-10T05:02:05.351Z,33.70
2023-03-10T05:03:05.225Z,34.40
2023-03-10T05:04:05.259Z,33.20
2023-03-10T05:05:05.248Z,34.60
2023-03-10T05:06:05.184Z,34.10
2023-03-10T05:07:05.227Z,33.20
2023-03-10T05:08:05.149Z,31.70
2023-03-10T05:09:05.166Z,33.20
2023-03-10T05:10:05.138Z,32.90
2023-03-10T05:11:05.145Z,32.60
2023-03-10T05:12:05.098Z,32.10
2023-03-10T05:13:05.103Z,35.70
2023-03-10T05:14:05.083Z,32.70
2023-03-10T05:15:05.117Z,33.10
2023-03-10T05:16:05.117Z,34.60
2023-03-10T05:17:05.047Z,32.70
2023-03-10T05:18:05.033Z,32.50
2023-03-10T05:19:05.036Z,33.70
2023-03-10T05:20:05.009Z,33.90
2023-03-10T05:21:04.984Z,32.50
2023-03-10T05:22:04.999Z,34.50
2023-03-10T05:23:04.964Z,35.60
2023-03-10T05:24:04.980Z,34.70
2023-03-10T05:25:04.958Z,32.80
2023-03-10T05:26:04.914Z,32.10
2023-03-10T05:27:04.936Z,32.90
2023-03-10T05:28:04.908Z,33.80
2023-03-10T05:29:04.914Z,33.70
2023-03-10T05:30:04.891Z,32.80
2023-03-10T05:31:04.899Z,34.40
2023-03-10T05:32:04.869Z,36.00
2023-03-10T05:33:04.865Z,33.90
2023-03-10T05:34:04.863Z,36.80
2023-03-10T05:35:04.839Z,31.80
2023-03-10T05:36:04.847Z,32.60
2023-03-10T05:37:04.798Z,32.50
2023-03-10T05:38:04.780Z,33.60
2023-03-10T05:39:04.789Z,34.20
2023-03-10T05:40:04.761Z,34.90
2023-03-10T05:41:04.748Z,34.00
2023-03-10T05:42:04.716Z,33.30
2023-03-10T05:43:04.735Z,32.70
2023-03-10T05:44:04.694Z,35.20
2023-03-10T05:45:04.685Z,34.20
2023-03-10T05:46:04.695Z,33.80
2023-03-10T05:47:04.733Z,35.60
2023-03-10T05:48:04.667Z,35.50
2023-03-10T05:49:04.668Z,33.80
2023-03-10T05:50:04.616Z,32.60
2023-03-10T05:51:04.619Z,34.00
2023-03-10T05:52:04.610Z,36.00
2023-03-10T05:53:04.610Z,33.00
2023-03-10T05:54:04.565Z,35.50
2023-03-10T05:55:04.592Z,33.20
2023-03-10T05:56:04.549Z,32.20
2023-03-10T05:57:04.537Z,33.40
2023-03-10T05:58:04.535Z,34.00
2023-03-10T05:59:04.525Z,33.70
2023-03-10T06:00:04.509Z,31.80
2023-03-10T06:01:04.497Z,33.70
2023-03-10T06:02:04.500Z,33.60
2023-03-10T06:03:04.552Z,34.10
2023-03-10T06:04:04.491Z,34.80
2023-03-10T06:05:04.498Z,35.50
2023-03-10T06:06:04.520Z,36.60
2023-03-10T06:07:04.429Z,32.80
2023-03-10T06:08:04.398Z,34.70
2023-03-10T06:09:04.385Z,34.00
2023-03-10T06:10:04.374Z,32.90
2023-03-10T06:11:04.387Z,33.10
2023-03-10T06:12:04.394Z,33.70
2023-03-10T06:13:04.338Z,34.50
2023-03-10T06:14:04.361Z,33.90
2023-03-10T06:15:04.317Z,35.50
2023-03-10T06:16:04.344Z,34.60
2023-03-10T06:17:04.293Z,33.70
2023-03-10T06:18:04.277Z,33.10
2023-03-10T06:19:04.307Z,34.20
2023-03-10T06:20:04.244Z,37.60
2023-03-10T06:21:04.234Z,33.90
2023-03-10T06:22:04.235Z,34.70
2023-03-10T06:23:04.226Z,35.90
2023-03-10T06:24:04.234Z,32.50
2023-03-10T06:25:04.197Z,34.10
2023-03-10T06:26:04.204Z,33.60
2023-03-10T06:27:04.164Z,34.40
2023-03-10T06:28:04.158Z,33.80
2023-03-10T06:29:04.144Z,34.40
2023-03-10T06:30:04.127Z,32.90
2023-03-10T06:31:04.128Z,33.40
2023-03-10T06:32:04.152Z,33.90
2023-03-10T06:33:04.099Z,31.80
2023-03-10T06:34:04.673Z,35.00
2023-03-10T06:35:04.065Z,32.80
2023-03-10T06:36:04.077Z,35.10
2023-03-10T06:37:04.059Z,33.50
2023-03-10T06:38:04.048Z,32.30
2023-03-10T06:39:04.021Z,32.50
2023-03-10T06:40:04.002Z,32.70
2023-03-10T06:41:54.568Z,33.70
2023-03-10T06:42:54.562Z,33.30
2023-03-10T06:43:54.549Z,33.50
2023-03-10T06:44:54.539Z,34.20
2023-03-10T06:45:54.518Z,32.30
2023-03-10T06:46:54.488Z,34.20
2023-03-10T06:47:54.469Z,33.20
2023-03-10T06:48:54.482Z,33.30
2023-03-10T06:49:54.477Z,34.30
2023-03-10T06:50:54.454Z,34.70
2023-03-10T06:51:54.432Z,34.50
2023-03-10T06:52:54.427Z,35.70
2023-03-10T06:53:54.523Z,33.60
2023-03-10T06:54:54.399Z,32.40
2023-03-10T06:55:54.385Z,32.40
2023-03-10T06:56:54.373Z,34.20
2023-03-10T06:57:54.357Z,34.20
2023-03-10T06:58:54.355Z,33.70
2023-03-10T06:59:54.341Z,35.00
2023-03-10T07:00:54.341Z,34.30
2023-03-10T07:01:54.301Z,32.70
2023-03-10T07:02:54.280Z,34.50
2023-03-10T07:03:54.266Z,34.40
2023-03-10T07:04:54.347Z,35.70
2023-03-10T07:05:54.255Z,37.30
2023-03-10T07:06:54.249Z,33.80
2023-03-10T07:07:54.221Z,33.00
2023-03-10T07:08:54.239Z,35.90
2023-03-10T07:09:54.227Z,33.90
2023-03-10T07:10:54.191Z,34.30
2023-03-10T07:11:54.184Z,34.90
2023-03-10T07:12:54.166Z,34.60
2023-03-10T07:13:54.149Z,34.50
2023-03-10T07:14:54.149Z,33.00
2023-03-10T07:15:54.129Z,34.40
2023-03-10T07:16:54.166Z,36.30
2023-03-10T07:17:54.089Z,34.50
2023-03-10T07:18:54.079Z,33.40
2023-03-10T07:19:54.127Z,34.40
2023-03-10T07:20:54.062Z,36.50
2023-03-10T07:21:54.040Z,34.30
2023-03-10T07:22:54.023Z,35.90
2023-03-10T07:23:54.017Z,34.00
2023-03-10T07:24:54.005Z,33.10
2023-03-10T07:25:53.997Z,31.90
2023-03-10T07:26:54.021Z,35.90
2023-03-10T07:27:53.966Z,33.50
2023-03-10T07:28:53.966Z,32.40
2023-03-10T07:29:53.931Z,35.70
2023-03-10T07:30:53.950Z,32.30
2023-03-10T07:31:53.960Z,34.20
2023-03-10T07:32:54.010Z,35.70
2023-03-10T07:33:53.907Z,34.00
2023-03-10T07:34:53.868Z,33.30
2023-03-10T07:35:53.892Z,34.50
2023-03-10T07:36:53.868Z,33.70
2023-03-10T07:37:53.854Z,34.10
2023-03-10T07:38:53.828Z,35.70
2023-03-10T07:39:53.807Z,34.60
2023-03-10T07:40:53.806Z,38.50
2023-03-10T07:41:53.774Z,34.90
2023-03-10T07:42:53.769Z,33.10
2023-03-10T07:43:53.764Z,34.70
2023-03-10T07:44:53.776Z,36.40
2023-03-10T07:45:53.800Z,35.20
2023-03-10T07:46:54.005Z,32.40
2023-03-10T07:47:53.704Z,33.90
2023-03-10T07:48:53.725Z,33.80
2023-03-10T07:49:53.682Z,35.00
2023-03-10T07:50:53.667Z,34.60
2023-03-10T07:51:53.664Z,32.60
2023-03-10T07:52:53.631Z,35.60
2023-03-10T07:53:53.623Z,34.60
2023-03-10T07:54:53.639Z,34.20
2023-03-10T07:55:53.652Z,35.00
2023-03-10T07:56:53.596Z,32.80
2023-03-10T07:57:53.613Z,30.60
2023-03-10T07:58:53.564Z,34.60
2023-03-10T07:59:53.579Z,34.30
2023-03-10T08:00:53.582Z,32.10
2023-03-10T08:01:53.524Z,34.00
2023-03-10T08:02:53.527Z,33.70
2023-03-10T08:03:55.383Z,34.20
2023-03-10T08:04:53.567Z,32.80
2023-03-10T08:05:53.493Z,32.30
2023-03-10T08:06:53.473Z,33.00
2023-03-10T08:07:53.455Z,33.20
2023-03-10T08:08:53.444Z,32.00
2023-03-10T08:09:53.443Z,33.30
2023-03-10T08:10:53.428Z,33.90
2023-03-10T08:11:53.409Z,33.00
2023-03-10T08:12:53.393Z,33.40
2023-03-10T08:13:53.453Z,31.80
2023-03-10T08:14:53.387Z,31.30
2023-03-10T08:15:53.493Z,33.60
2023-03-10T08:16:53.334Z,34.10
2023-03-10T08:17:53.322Z,33.80
2023-03-10T08:18:53.358Z,34.20
2023-03-10T08:19:53.317Z,34.70
2023-03-10T08:20:53.346Z,35.40
2023-03-10T08:21:53.272Z,33.80
2023-03-10T08:22:53.262Z,31.60
2023-03-10T08:23:53.253Z,32.90
2023-03-10T08:24:53.259Z,31.90
2023-03-10T08:25:53.250Z,32.30
2023-03-10T08:26:53.235Z,31.80
2023-03-10T08:27:53.205Z,32.00
2023-03-10T08:28:53.205Z,32.40
2023-03-10T08:29:53.171Z,34.10
2023-03-10T08:31:04.140Z,34.10
2023-03-10T08:31:54.215Z,33.10
2023-03-10T08:32:53.202Z,34.00
2023-03-10T08:33:53.134Z,35.70
2023-03-10T08:34:53.119Z,33.50
2023-03-10T08:35:53.181Z,31.60
2023-03-10T08:36:53.119Z,34.10
2023-03-10T08:37:55.265Z,32.50
2023-03-10T08:38:53.091Z,34.50
2023-03-10T08:39:53.042Z,30.90
2023-03-10T08:40:53.034Z,31.10
2023-03-10T08:41:53.039Z,34.00
2023-03-10T08:42:53.024Z,32.80
2023-03-10T08:43:53.041Z,31.40
2023-03-10T08:44:53.006Z,31.40
2023-03-10T08:45:52.974Z,32.70
2023-03-10T08:46:53.011Z,32.00
2023-03-10T08:47:52.963Z,32.10
2023-03-10T08:48:52.929Z,33.00
2023-03-10T08:49:52.957Z,30.80
2023-03-10T08:50:52.918Z,31.50
2023-03-10T08:51:52.904Z,31.80
2023-03-10T08:52:52.898Z,29.90
2023-03-10T08:53:52.874Z,33.30
2023-03-10T08:54:52.867Z,31.90
2023-03-10T08:55:52.865Z,31.70
2023-03-10T08:56:52.824Z,31.80
2023-03-10T08:57:52.822Z,31.40
2023-03-10T08:58:52.823Z,32.70
2023-03-10T08:59:52.792Z,32.70
2023-03-10T09:00:52.804Z,30.70
2023-03-10T09:01:52.847Z,30.80
2023-03-10T09:02:52.825Z,32.20
2023-03-10T09:03:52.759Z,34.10
2023-03-10T09:04:52.749Z,31.10
2023-03-10T09:05:52.723Z,33.70
2023-03-10T09:06:52.724Z,31.00
2023-03-10T09:07:52.695Z,30.50
2023-03-10T09:08:52.684Z,31.00
2023-03-10T09:09:52.675Z,33.00
2023-03-10T09:10:52.669Z,31.80
2023-03-10T09:11:52.665Z,29.70
2023-03-10T09:13:03.897Z,32.30
2023-03-10T09:13:53.613Z,31.40
2023-03-10T09:14:52.608Z,32.10
2023-03-10T09:15:52.607Z,31.90
2023-03-10T09:16:52.674Z,32.40
2023-03-10T09:17:52.589Z,29.60
2023-03-10T09:18:52.565Z,30.90
2023-03-10T09:19:52.562Z,31.70
2023-03-10T09:20:52.524Z,31.30
2023-03-10T09:21:52.522Z,31.30
2023-03-10T09:22:52.516Z,29.50
2023-03-10T09:23:52.507Z,31.40
2023-03-10T09:24:52.477Z,30.70
2023-03-10T09:25:52.462Z,30.00
2023-03-10T09:26:52.469Z,30.90
2023-03-10T09:27:52.447Z,30.20
2023-03-10T09:28:53.402Z,30.70
2023-03-10T09:29:52.431Z,27.80
2023-03-10T09:30:52.399Z,28.10
2023-03-10T09:31:52.457Z,28.20
2023-03-10T09:32:52.403Z,30.40
2023-03-10T09:33:52.362Z,28.00
2023-03-10T09:34:52.366Z,27.30
2023-03-10T09:36:06.018Z,26.50
2023-03-10T09:36:53.328Z,29.20
2023-03-10T09:37:52.318Z,30.00
2023-03-10T09:38:52.286Z,27.40
2023-03-10T09:39:52.335Z,28.60
2023-03-10T09:40:52.275Z,28.70
2023-03-10T09:41:52.254Z,29.60
2023-03-10T09:42:52.255Z,27.40
2023-03-10T09:43:54.325Z,28.80
2023-03-10T09:44:52.228Z,28.90
2023-03-10T09:45:52.268Z,28.20
2023-03-10T09:46:52.192Z,29.40
2023-03-10T09:47:52.202Z,31.60
2023-03-10T09:48:52.185Z,30.70
2023-03-10T09:49:52.165Z,31.90
2023-03-10T09:50:52.215Z,29.40
2023-03-10T09:51:52.148Z,31.10
2023-03-10T09:52:52.115Z,28.90
2023-03-10T09:53:52.106Z,31.70
2023-03-10T09:54:52.100Z,32.40
2023-03-10T09:55:52.102Z,31.10
2023-03-10T09:56:54.144Z,29.20
2023-03-10T09:57:52.056Z,28.80
2023-03-10T09:58:52.044Z,29.60
2023-03-10T09:59:52.032Z,30.40
2023-03-10T10:00:52.021Z,28.50
2023-03-10T10:01:52.038Z,26.40
2023-03-10T10:02:52.047Z,28.10
2023-03-10T10:03:53.568Z,27.50
2023-03-10T10:04:52.041Z,28.20
2023-03-10T10:05:51.963Z,27.70
2023-03-10T10:06:51.954Z,26.40
2023-03-10T10:07:51.949Z,28.40
2023-03-10T10:09:03.471Z,27.10
2023-03-10T10:09:52.903Z,27.40
2023-03-10T10:10:51.910Z,27.00
2023-03-10T10:11:51.899Z,26.00
2023-03-10T10:12:51.876Z,26.90
2023-03-10T10:13:51.845Z,27.00
2023-03-10T10:14:57.552Z,27.30
2023-03-10T10:16:07.383Z,26.80
2023-03-10T10:16:52.849Z,26.30
2023-03-10T10:17:58.366Z,26.10
2023-03-10T10:18:52.877Z,25.30
2023-03-10T10:19:51.783Z,24.70
2023-03-10T10:20:51.836Z,25.70
2023-03-10T10:21:51.753Z,25.20
2023-03-10T10:22:51.739Z,27.60
2023-03-10T10:23:51.785Z,24.60
2023-03-10T10:24:54.314Z,26.60
2023-03-10T10:25:51.713Z,24.90
2023-03-10T10:26:51.675Z,25.50
2023-03-10T10:27:51.675Z,25.70
2023-03-10T10:28:51.652Z,24.80
2023-03-10T10:29:51.645Z,25.70
2023-03-10T10:30:51.673Z,26.20
2023-03-10T10:31:51.628Z,25.80
2023-03-10T10:32:51.669Z,25.60
2023-03-10T10:33:51.747Z,26.30
2023-03-10T10:34:51.563Z,27.90
2023-03-10T10:35:51.573Z,27.30
2023-03-10T10:36:51.544Z,26.50
2023-03-10T10:37:51.543Z,26.40
2023-03-10T10:38:51.512Z,26.70
2023-03-10T10:39:51.530Z,26.90
2023-03-10T10:40:51.508Z,30.60
2023-03-10T10:41:51.510Z,27.70
2023-03-10T10:42:51.541Z,27.40
2023-03-10T10:43:51.454Z,29.80
2023-03-10T10:44:51.444Z,27.60
2023-03-10T10:45:51.459Z,28.20
2023-03-10T10:46:51.440Z,29.20
2023-03-10T10:47:51.431Z,30.00
2023-03-10T10:48:51.452Z,28.20
2023-03-10T10:49:51.386Z,29.50
2023-03-10T10:50:51.376Z,29.60
2023-03-10T10:51:51.382Z,28.50
2023-03-10T10:52:51.342Z,29.20
2023-03-10T10:53:51.345Z,30.20
2023-03-10T10:54:51.332Z,28.90
2023-03-10T10:55:51.298Z,29.50
2023-03-10T10:56:51.290Z,29.40
2023-03-10T10:57:51.307Z,28.50
2023-03-10T10:58:51.267Z,27.50
2023-03-10T10:59:51.258Z,27.60
2023-03-10T11:00:51.302Z,28.90
2023-03-10T11:01:51.235Z,27.70
2023-03-10T11:02:51.336Z,29.50
2023-03-10T11:03:51.209Z,27.90
2023-03-10T11:04:51.196Z,29.40
2023-03-10T11:05:51.194Z,28.50
2023-03-10T11:06:51.187Z,28.80
2023-03-10T11:07:51.161Z,28.50
2023-03-10T11:08:51.470Z,29.50
2023-03-10T11:09:51.139Z,31.80
2023-03-10T11:10:51.117Z,29.50
2023-03-10T11:11:51.142Z,28.10
2023-03-10T11:12:51.112Z,27.90
2023-03-10T11:13:51.091Z,28.10
2023-03-10T11:14:51.073Z,27.00
2023-03-10T11:15:51.110Z,27.30
2023-03-10T11:16:51.039Z,26.50
2023-03-10T11:17:51.073Z,27.00
2023-03-10T11:18:51.621Z,26.80
2023-03-10T11:19:51.014Z,27.00
2023-03-10T11:20:50.993Z,27.60
2023-03-10T11:21:50.985Z,27.60
2023-03-10T11:22:50.970Z,26.80
2023-03-10T11:23:50.949Z,29.90
2023-03-10T11:24:50.942Z,27.40
2023-03-10T11:25:50.921Z,26.90
2023-03-10T11:26:50.930Z,27.90
2023-03-10T11:27:50.920Z,26.80
2023-03-10T11:28:50.892Z,29.00
2023-03-10T11:29:51.027Z,28.10
2023-03-10T11:30:50.923Z,28.30
2023-03-10T11:31:50.848Z,29.20
2023-03-10T11:32:50.980Z,27.20
2023-03-10T11:33:50.843Z,25.70
2023-03-10T11:34:50.800Z,26.90
2023-03-10T11:35:50.810Z,26.30
2023-03-10T11:36:56.321Z,28.00
2023-03-10T11:37:51.815Z,26.90
2023-03-10T11:38:50.765Z,26.80
2023-03-10T11:39:50.755Z,27.20
2023-03-10T11:40:50.778Z,26.70
2023-03-10T11:41:50.722Z,28.00
2023-03-10T11:42:50.701Z,25.80
2023-03-10T11:43:50.716Z,27.40
2023-03-10T11:44:50.682Z,28.60
2023-03-10T11:45:50.712Z,27.20
2023-03-10T11:46:50.650Z,25.90
2023-03-10T11:47:50.671Z,27.50
2023-03-10T11:48:50.667Z,27.40
2023-03-10T11:49:50.627Z,26.70
2023-03-10T11:50:50.614Z,29.20
2023-03-10T11:51:50.605Z,27.60
2023-03-10T11:52:50.586Z,28.50
2023-03-10T11:53:50.583Z,28.50
2023-03-10T11:54:50.560Z,28.10
2023-03-10T11:55:50.563Z,27.60
2023-03-10T11:56:50.518Z,27.40
2023-03-10T11:57:50.513Z,27.00
2023-03-10T11:58:50.504Z,28.70
2023-03-10T11:59:50.520Z,26.70
2023-03-10T12:00:50.485Z,26.50
2023-03-10T12:01:50.475Z,26.30
2023-03-10T12:02:50.463Z,27.30
2023-03-10T12:03:50.548Z,27.20
2023-03-10T12:04:50.438Z,28.00
2023-03-10T12:05:50.525Z,26.60
2023-03-10T12:06:50.404Z,28.50
2023-03-10T12:07:50.413Z,27.60
2023-03-10T12:08:50.373Z,27.70
2023-03-10T12:09:50.390Z,27.50
2023-03-10T12:10:50.344Z,27.20
2023-03-10T12:11:50.347Z,27.10
2023-03-10T12:12:50.348Z,28.20
2023-03-10T12:13:50.325Z,27.00
2023-03-10T12:14:50.288Z,28.10
2023-03-10T12:15:50.358Z,27.30
2023-03-10T12:16:50.317Z,27.70
2023-03-10T12:17:50.260Z,28.00
2023-03-10T12:18:50.240Z,27.40
2023-03-10T12:19:50.244Z,27.90
2023-03-10T12:20:50.479Z,27.90
2023-03-10T12:21:50.414Z,26.60
2023-03-10T12:22:50.205Z,27.70
2023-03-10T12:23:50.197Z,27.40
2023-03-10T12:24:50.168Z,27.10
2023-03-10T12:25:50.164Z,25.30
2023-03-10T12:26:50.152Z,25.50
2023-03-10T12:27:50.141Z,26.80
2023-03-10T12:28:50.124Z,27.00
2023-03-10T12:29:50.111Z,25.80
2023-03-10T12:30:50.143Z,26.70
2023-03-10T12:31:50.149Z,27.10
2023-03-10T12:32:50.168Z,24.60
2023-03-10T12:33:50.081Z,27.20
2023-03-10T12:34:50.053Z,27.10
2023-03-10T12:35:50.068Z,26.30
2023-03-10T12:36:50.020Z,26.10
2023-03-10T12:37:50.024Z,26.40
2023-03-10T12:38:50.007Z,28.30
2023-03-10T12:39:49.982Z,25.40
2023-03-10T12:40:50.012Z,25.20
2023-03-10T12:42:45.993Z,25.80
2023-03-10T12:43:46.033Z,26.10
2023-03-10T12:44:45.964Z,26.90
2023-03-10T12:45:45.940Z,24.50
2023-03-10T12:46:45.983Z,25.00
2023-03-10T12:47:45.954Z,24.40
2023-03-10T12:48:45.904Z,25.40
2023-03-10T12:49:45.895Z,26.50
2023-03-10T12:50:45.869Z,25.20
2023-03-10T12:51:45.877Z,26.50
2023-03-10T12:52:45.839Z,25.20
2023-03-10T12:53:45.882Z,25.00
2023-03-10T12:54:45.841Z,25.80